Time;durP1;ratioP1;P1;durP2;ratioP2;P2;SDS_P1;SDS_P2;PMS_P1;PMS_P2;Temp;Humidity;BMP_temperature;BMP_pressure;BME280_temperature;BME280_humidity;BME280_pressure;Samples;Min_cycle;Max_cycle;Signal;HPM_P1;HPM_P2
2022/04/13 00:01:32;;;;;;;3.63;1.80;;;;;;;16.59;39.69;99784.09;10233800;28;20057;-63
2022/04/13 00:06:38;;;;;;;2.47;1.80;;;;;;;16.60;40.00;99796.50;10233166;28;20058;-64
2022/04/13 00:11:40;;;;;;;2.33;1.38;;;;;;;16.51;39.91;99786.78;10234574;28;20062;-65
2022/04/13 00:16:42;;;;;;;3.33;1.70;;;;;;;16.55;40.00;99796.19;10233044;28;20058;-62
2022/04/13 00:21:43;;;;;;;2.13;1.50;;;;;;;16.54;40.01;99802.59;10228979;28;20050;-63
2022/04/13 00:26:45;;;;;;;3.97;1.48;;;;;;;16.49;40.15;99796.06;10231719;28;20066;-63
2022/04/13 00:31:46;;;;;;;2.78;1.52;;;;;;;16.42;40.49;99804.81;10243750;28;20102;-64
2022/04/13 00:36:47;;;;;;;3.40;1.92;;;;;;;16.36;40.62;99812.69;10231783;28;20059;-63
2022/04/13 00:41:57;;;;;;;1.60;1.33;;;;;;;16.26;40.91;99810.22;10226200;28;20052;-63
2022/04/13 00:47:01;;;;;;;2.70;1.40;;;;;;;16.27;40.89;99817.25;10227767;28;20050;-63
2022/04/13 00:52:04;;;;;;;2.95;1.60;;;;;;;16.24;41.02;99813.06;10229460;28;20130;-63
2022/04/13 00:57:09;;;;;;;3.30;1.83;;;;;;;16.23;41.24;99816.75;10233084;28;20550;-63
2022/04/13 01:02:12;;;;;;;2.17;1.60;;;;;;;16.17;41.23;99813.91;10239229;28;20043;-61
2022/04/13 01:07:13;;;;;;;4.03;1.88;;;;;;;16.08;41.38;99813.09;10235430;28;20094;-63
2022/04/13 01:12:15;;;;;;;4.50;1.80;;;;;;;16.05;41.59;99818.81;10235537;28;20502;-63
2022/04/13 01:17:17;;;;;;;2.55;1.80;;;;;;;16.01;41.74;99822.84;10236082;28;20051;-63
2022/04/13 01:22:19;;;;;;;2.35;2.15;;;;;;;15.94;41.83;99819.16;10238289;28;20059;-62
2022/04/13 01:27:21;;;;;;;3.70;1.85;;;;;;;15.94;41.99;99825.34;10235129;28;20055;-63
2022/04/13 01:32:22;;;;;;;3.05;1.63;;;;;;;15.85;41.79;99823.66;10240843;28;20061;-62
2022/04/13 01:37:24;;;;;;;3.53;1.70;;;;;;;15.81;41.97;99823.19;10244870;28;20051;-62
2022/04/13 01:42:25;;;;;;;3.38;2.03;;;;;;;15.86;41.96;99828.88;10237695;28;20142;-63
2022/04/13 01:47:26;;;;;;;1.92;1.67;;;;;;;15.75;42.29;99823.81;10197639;28;1053429;-63
2022/04/13 01:52:27;;;;;;;2.30;1.90;;;;;;;15.75;42.23;99845.28;10230600;28;20134;-64
2022/04/13 01:57:28;;;;;;;2.53;2.00;;;;;;;15.78;42.40;99852.19;10229800;28;20047;-64
2022/04/13 02:02:30;;;;;;;3.45;1.98;;;;;;;15.68;42.19;99844.28;10236295;28;20051;-63
2022/04/13 02:07:32;;;;;;;2.33;1.83;;;;;;;15.66;42.55;99852.50;10238580;28;20077;-64
2022/04/13 02:12:33;;;;;;;1.95;1.75;;;;;;;15.54;42.60;99838.56;10236266;28;20042;-63
2022/04/13 02:17:36;;;;;;;3.95;1.77;;;;;;;15.65;42.52;99855.34;10243286;28;20467;-65
2022/04/13 02:22:38;;;;;;;2.70;1.90;;;;;;;15.64;42.55;99849.16;10234586;28;20187;-64
2022/04/13 02:27:47;;;;;;;2.10;1.88;;;;;;;15.60;42.90;99852.31;10234885;28;20058;-64
2022/04/13 02:32:49;;;;;;;3.15;1.73;;;;;;;15.53;43.11;99858.34;10232883;28;20051;-63
2022/04/13 02:37:50;;;;;;;5.10;2.45;;;;;;;15.46;43.49;99851.13;10233529;28;20046;-64
2022/04/13 02:42:52;;;;;;;2.15;1.80;;;;;;;15.41;43.49;99851.63;10235607;28;20054;-63
2022/04/13 02:47:53;;;;;;;2.50;1.80;;;;;;;15.40;43.66;99843.72;10235472;28;20061;-63
2022/04/13 02:52:56;;;;;;;3.15;1.83;;;;;;;15.33;43.80;99835.53;10231042;28;20065;-63
2022/04/13 02:57:58;;;;;;;3.73;2.13;;;;;;;15.29;43.75;99844.88;10233815;28;20861;-62
2022/04/13 03:02:59;;;;;;;3.90;2.10;;;;;;;15.33;43.54;99846.25;10231782;28;20789;-63
2022/04/13 03:08:02;;;;;;;2.60;2.05;;;;;;;15.26;43.70;99856.78;10232796;28;20062;-63
2022/04/13 03:13:04;;;;;;;3.05;1.90;;;;;;;15.22;43.86;99855.41;10231217;28;20057;-64
2022/04/13 03:18:06;;;;;;;4.20;1.75;;;;;;;15.09;44.03;99839.81;10230773;28;20141;-63
2022/04/13 03:23:07;;;;;;;2.50;2.30;;;;;;;15.16;43.92;99851.56;10234275;28;20061;-63
2022/04/13 03:28:09;;;;;;;3.78;2.20;;;;;;;15.08;44.24;99848.84;10234506;28;20161;-64
2022/04/13 03:33:10;;;;;;;3.53;2.47;;;;;;;15.04;44.17;99852.84;10235695;28;20047;-62
2022/04/13 03:38:11;;;;;;;3.83;3.15;;;;;;;14.97;44.21;99857.19;10232344;28;20054;-63
2022/04/13 03:43:13;;;;;;;3.10;2.55;;;;;;;14.82;44.60;99844.41;10231538;28;20054;-64
2022/04/13 03:48:14;;;;;;;4.50;2.10;;;;;;;14.83;44.73;99861.31;10232296;28;20050;-63
2022/04/13 03:53:16;;;;;;;3.95;2.30;;;;;;;14.74;44.64;99873.84;10232585;28;20066;-65
2022/04/13 03:58:17;;;;;;;2.70;1.95;;;;;;;14.85;44.75;99886.13;10229891;28;20061;-61
2022/04/13 04:03:19;;;;;;;2.22;1.83;;;;;;;14.69;45.22;99878.81;10231994;28;20053;-62
2022/04/13 04:08:20;;;;;;;3.05;1.92;;;;;;;14.70;45.36;99888.56;10229659;28;20046;-63
2022/04/13 04:13:21;;;;;;;5.95;2.58;;;;;;;14.56;45.55;99889.97;10232409;28;20141;-62
2022/04/13 04:18:23;;;;;;;3.83;2.03;;;;;;;14.60;45.94;99898.50;10228969;28;20498;-63
2022/04/13 04:23:24;;;;;;;3.10;1.88;;;;;;;14.52;45.92;99898.44;10234080;28;20065;-62
2022/04/13 04:28:25;;;;;;;3.38;2.00;;;;;;;14.50;46.28;99894.09;10228877;28;20448;-66
2022/04/13 04:33:27;;;;;;;4.63;2.35;;;;;;;14.47;45.90;99889.06;10230045;28;20054;-61
2022/04/13 04:38:32;;;;;;;4.10;2.63;;;;;;;14.31;46.27;99873.72;10237107;28;20136;-61
2022/04/13 04:43:33;;;;;;;5.22;2.47;;;;;;;14.35;46.11;99890.28;10230007;28;20142;-63
2022/04/13 04:48:34;;;;;;;3.25;2.45;;;;;;;14.35;46.29;99892.97;10228918;28;20047;-62
2022/04/13 04:53:36;;;;;;;3.55;2.30;;;;;;;14.25;46.04;99873.53;10197789;28;20055;-63
2022/04/13 04:58:37;;;;;;;4.05;2.30;;;;;;;14.32;46.00;99896.81;10210794;28;20050;-62
2022/04/13 05:03:39;;;;;;;5.20;2.53;;;;;;;14.30;45.74;99897.97;10204729;28;20062;-61
2022/04/13 05:08:40;;;;;;;4.65;2.55;;;;;;;14.31;45.32;99913.06;10211625;28;20051;-60
2022/04/13 05:13:42;;;;;;;3.50;2.25;;;;;;;14.27;45.60;99903.63;10215777;28;20134;-63
2022/04/13 05:18:47;;;;;;;4.63;3.42;;;;;;;14.31;45.37;99915.72;10217394;28;20066;-62
2022/04/13 05:23:49;;;;;;;5.63;2.50;;;;;;;14.37;45.40;99923.13;10214929;28;20403;-62
2022/04/13 05:28:50;;;;;;;4.95;2.47;;;;;;;14.38;45.33;99932.84;10211680;28;20067;-63
2022/04/13 05:33:52;;;;;;;6.38;2.90;;;;;;;14.32;45.44;99922.75;10214989;28;20141;-62
2022/04/13 05:38:53;;;;;;;4.57;2.55;;;;;;;14.44;45.11;99936.72;10219510;28;20059;-63
2022/04/13 05:43:55;;;;;;;3.58;2.70;;;;;;;14.48;45.02;99936.25;10215527;28;20657;-62
2022/04/13 05:48:56;;;;;;;4.32;2.53;;;;;;;14.57;44.54;99941.69;10218094;28;20059;-60
2022/04/13 05:53:58;;;;;;;5.25;2.45;;;;;;;14.61;44.15;99951.94;10221823;28;20054;-61
2022/04/13 05:58:59;;;;;;;4.60;2.42;;;;;;;14.74;44.19;99951.53;10219908;28;20065;-61
2022/04/13 06:04:00;;;;;;;4.93;2.55;;;;;;;14.75;43.82;99945.16;10214801;28;20944;-63
2022/04/13 06:09:02;;;;;;;4.47;2.10;;;;;;;14.96;43.67;99958.19;10224858;28;20652;-61
2022/04/13 06:14:03;;;;;;;5.10;2.83;;;;;;;15.06;43.38;99968.81;10218733;28;20073;-61
2022/04/13 06:19:05;;;;;;;5.30;2.63;;;;;;;15.16;42.13;99977.56;10218552;28;20055;-61
2022/04/13 06:24:06;;;;;;;3.70;2.30;;;;;;;15.24;41.89;99982.13;10216530;28;20063;-62
2022/04/13 06:29:08;;;;;;;2.75;1.70;;;;;;;15.32;41.58;99986.69;10213265;28;20059;-61
2022/04/13 06:34:09;;;;;;;5.43;2.17;;;;;;;15.30;41.32;99988.69;10215095;28;20481;-62
2022/04/13 06:39:11;;;;;;;4.55;2.15;;;;;;;15.44;41.21;100001.47;10214597;28;20059;-61
2022/04/13 06:44:12;;;;;;;4.28;2.58;;;;;;;15.53;40.92;100011.22;10210339;28;20051;-61
2022/04/13 06:49:13;;;;;;;5.70;2.88;;;;;;;15.62;40.72;100009.44;10208784;28;20059;-61
2022/04/13 06:54:15;;;;;;;5.20;3.05;;;;;;;15.86;39.97;100018.59;10212268;28;20047;-61
2022/04/13 06:59:16;;;;;;;8.98;2.60;;;;;;;16.11;39.81;100022.19;10206117;28;20242;-61
2022/04/13 07:04:18;;;;;;;3.20;2.40;;;;;;;16.31;38.98;100027.25;10211238;28;20051;-61
2022/04/13 07:09:19;;;;;;;6.18;2.58;;;;;;;16.36;38.42;100020.38;10210366;28;20134;-61
2022/04/13 07:14:21;;;;;;;4.05;2.40;;;;;;;16.65;38.47;100023.53;10207175;28;20138;-60
2022/04/13 07:19:22;;;;;;;7.30;2.90;;;;;;;16.79;38.06;100039.00;10228094;28;20078;-61
2022/04/13 07:24:24;;;;;;;4.90;2.90;;;;;;;16.94;37.60;100044.56;10212091;28;20058;-60
2022/04/13 07:29:26;;;;;;;6.20;2.40;;;;;;;16.97;37.04;100046.91;10207055;28;20050;-60
2022/04/13 07:34:27;;;;;;;5.68;3.08;;;;;;;17.30;36.30;100046.84;10211068;28;20141;-60
2022/04/13 07:39:28;;;;;;;8.45;2.85;;;;;;;17.52;36.31;100052.47;10208193;28;20510;-60
2022/04/13 07:44:30;;;;;;;5.20;2.60;;;;;;;17.73;35.79;100055.44;10202651;28;20482;-61
2022/04/13 07:49:51;;;;;;;3.72;2.58;;;;;;;18.01;34.77;100050.44;10208921;28;20051;-60
2022/04/13 07:54:52;;;;;;;4.32;2.60;;;;;;;17.82;35.51;100037.41;10204122;28;20083;-60
2022/04/13 07:59:54;;;;;;;3.53;2.47;;;;;;;18.35;35.03;100045.69;10210425;28;20046;-62
2022/04/13 08:04:55;;;;;;;4.60;2.60;;;;;;;18.71;34.47;100043.19;10206439;28;20053;-59
2022/04/13 08:10:04;;;;;;;3.72;3.28;;;;;;;18.83;33.89;100034.69;10209124;28;20058;-61
2022/04/13 08:15:06;;;;;;;4.53;2.55;;;;;;;18.84;34.10;100047.13;10208250;28;20984;-61
2022/04/13 08:20:10;;;;;;;5.80;2.80;;;;;;;18.92;33.83;100039.00;10210611;28;20065;-61
2022/04/13 08:25:12;;;;;;;5.15;3.30;;;;;;;19.19;33.41;100047.50;10211363;28;20055;-60
2022/04/13 08:30:34;;;;;;;5.20;2.05;;;;;;;18.95;34.12;100052.13;10215345;28;20533;-60
2022/04/13 08:35:35;;;;;;;6.25;2.47;;;;;;;19.28;33.14;100054.50;10216162;28;20134;-60
2022/04/13 08:40:49;;;;;;;4.72;2.80;;;;;;;19.68;33.09;100063.16;10212482;28;20093;-61
2022/04/13 08:45:55;;;;;;;6.18;2.88;;;;;;;19.80;33.11;100065.38;10210054;28;20048;-61
2022/04/13 08:50:59;;;;;;;4.80;2.67;;;;;;;20.12;32.75;100083.84;10208542;28;20047;-61
2022/04/13 08:56:02;;;;;;;5.88;2.50;;;;;;;20.66;32.20;100085.28;10209775;28;20074;-60
2022/04/13 09:01:16;;;;;;;6.18;2.55;;;;;;;21.04;31.49;100081.44;10208533;28;20047;-63
2022/04/13 09:06:22;;;;;;;4.70;2.45;;;;;;;21.02;31.95;100105.16;10209546;28;20055;-63
2022/04/13 09:11:26;;;;;;;6.47;2.93;;;;;;;21.42;31.02;100089.19;10217664;28;20047;-61
2022/04/13 09:16:29;;;;;;;4.40;2.40;;;;;;;21.68;30.87;100093.16;10218182;28;20062;-61
2022/04/13 09:21:32;;;;;;;4.15;2.83;;;;;;;21.66;30.51;100097.91;10220181;28;20057;-61
2022/04/13 09:26:35;;;;;;;;;;;;;;;22.27;30.33;100096.28;10217142;28;20067;-61
2022/04/13 09:31:36;;;;;;;7.28;2.85;;;;;;;22.78;29.14;100093.06;10217085;28;19958;-63
2022/04/13 09:36:38;;;;;;;7.68;3.55;;;;;;;23.04;28.64;100100.38;10215434;28;20118;-61
2022/04/13 09:41:39;;;;;;;5.03;3.08;;;;;;;23.40;28.39;100079.28;10215376;28;20150;-61
2022/04/13 09:46:42;;;;;;;5.63;3.00;;;;;;;23.79;28.39;100088.38;10214223;28;20113;-61
2022/04/13 09:51:48;;;;;;;6.85;3.53;;;;;;;23.99;27.63;100086.44;10217688;28;20051;-62
2022/04/13 09:56:55;;;;;;;4.72;3.10;;;;;;;24.45;27.42;100081.78;10218545;28;21308;-61
2022/04/13 10:01:58;;;;;;;4.70;4.10;;;;;;;25.05;26.53;100077.81;10216941;28;20134;-62
2022/04/13 10:07:17;;;;;;;8.40;4.72;;;;;;;25.74;26.16;100070.41;10212388;28;20414;-61
2022/04/13 10:12:19;;;;;;;5.85;4.18;;;;;;;26.51;25.05;100062.69;10216432;28;20042;-62
2022/04/13 10:17:20;;;;;;;5.78;3.80;;;;;;;27.42;23.88;100055.09;10220615;28;20057;-61
2022/04/13 10:22:22;;;;;;;4.15;2.60;;;;;;;28.69;22.11;100052.38;10216084;28;20296;-60
2022/04/13 10:27:25;;;;;;;6.70;3.50;;;;;;;29.42;21.22;100060.59;10213600;28;20051;-62
2022/04/13 10:32:27;;;;;;;7.07;3.78;;;;;;;31.44;19.41;100060.69;10219281;28;20051;-61
2022/04/13 10:37:28;;;;;;;6.50;2.80;;;;;;;30.23;20.62;100048.16;10234692;28;20047;-62
2022/04/13 10:42:31;;;;;;;4.10;2.67;;;;;;;29.11;21.83;100059.34;10221893;28;20461;-62
2022/04/13 10:47:57;;;;;;;3.97;2.95;;;;;;;30.23;20.07;100056.38;10220681;28;20551;-61
2022/04/13 10:53:27;;;;;;;4.35;2.95;;;;;;;33.90;16.63;100050.88;10254758;28;20051;-61
2022/04/13 10:58:38;;;;;;;5.03;2.75;;;;;;;35.18;15.79;100060.97;10228321;28;20135;-61
2022/04/13 11:03:39;;;;;;;5.15;2.65;;;;;;;35.97;14.86;100059.75;10218958;28;20129;-61
2022/04/13 11:08:44;;;;;;;5.18;3.00;;;;;;;36.30;14.50;100053.53;10219769;28;20675;-62
2022/04/13 11:13:47;;;;;;;5.38;2.60;;;;;;;36.00;14.53;100041.75;10223481;28;20179;-62
2022/04/13 11:19:05;;;;;;;5.95;3.78;;;;;;;37.21;13.56;100044.75;10229723;28;20117;-63
2022/04/13 11:24:06;;;;;;;7.55;3.72;;;;;;;37.49;13.73;100036.47;10225480;28;20137;-62
2022/04/13 11:29:21;;;;;;;5.63;3.17;;;;;;;36.32;14.29;100035.47;10223702;28;20057;-63
2022/04/13 11:34:29;;;;;;;5.90;3.53;;;;;;;35.38;15.36;100029.50;10217012;28;20403;-62
2022/04/13 11:39:57;;;;;;;4.97;3.15;;;;;;;37.05;14.12;99993.47;10220020;28;20508;-63
2022/04/13 11:45:13;;;;;;;7.20;3.35;;;;;;;36.13;14.51;99996.69;10218649;28;20528;-61
2022/04/13 11:50:18;;;;;;;8.13;3.40;;;;;;;32.82;17.33;99990.50;10214245;28;20050;-61
2022/04/13 11:55:41;;;;;;;6.97;3.20;;;;;;;32.81;17.68;100008.97;10227704;28;20055;-63
2022/04/13 12:00:55;;;;;;;7.03;3.20;;;;;;;36.91;13.97;100015.66;10216098;28;20050;-62
2022/04/13 12:06:00;;;;;;;5.78;3.10;;;;;;;38.59;12.91;100023.41;10215286;28;20047;-62
2022/04/13 12:11:10;;;;;;;6.68;3.83;;;;;;;39.56;12.27;100019.13;10216683;28;20055;-60
2022/04/13 12:16:19;;;;;;;7.93;3.50;;;;;;;39.36;11.99;100006.63;10218308;28;20046;-62
2022/04/13 12:21:23;;;;;;;6.75;2.95;;;;;;;37.85;12.75;99994.88;10219465;28;20210;-61
2022/04/13 12:26:38;;;;;;;5.40;2.42;;;;;;;35.00;15.34;99987.06;10218015;28;20082;-60
2022/04/13 12:31:58;;;;;;;4.78;2.97;;;;;;;32.41;17.62;99997.69;10219995;28;20074;-63
2022/04/13 12:37:01;;;;;;;5.97;3.17;;;;;;;31.78;19.51;99995.06;10214632;28;20118;-63
2022/04/13 12:42:04;;;;;;;6.05;3.53;;;;;;;32.14;19.78;99994.34;10214307;28;20050;-62
2022/04/13 12:47:08;;;;;;;6.47;3.80;;;;;;;32.56;18.75;99980.34;10223343;28;20058;-63
2022/04/13 12:52:10;;;;;;;5.53;3.13;;;;;;;32.70;19.22;99994.41;10226122;28;20043;-64
2022/04/13 12:57:11;;;;;;;6.82;3.75;;;;;;;32.30;19.35;99982.25;10224084;28;20065;-64
2022/04/13 13:02:19;;;;;;;7.40;3.90;;;;;;;31.73;19.83;99989.56;10224182;28;20047;-62
2022/04/13 13:07:30;;;;;;;6.88;3.25;;;;;;;30.52;20.25;99984.72;10224192;28;20477;-61
2022/04/13 13:12:33;;;;;;;8.32;3.15;;;;;;;30.63;19.68;99986.47;10224227;28;20065;-61
2022/04/13 13:17:42;;;;;;;6.75;2.22;;;;;;;30.50;19.94;99981.44;10223475;28;20752;-62
2022/04/13 13:22:48;;;;;;;4.53;2.05;;;;;;;30.18;20.49;99990.47;10219782;28;20059;-63
2022/04/13 13:27:56;;;;;;;5.95;2.72;;;;;;;30.02;19.91;99985.91;10219410;28;20141;-64
2022/04/13 13:32:57;;;;;;;8.63;5.95;;;;;;;29.86;20.29;99971.22;10221593;28;20129;-63
2022/04/13 13:38:07;;;;;;;8.80;5.97;;;;;;;30.05;19.94;99979.91;10221777;28;20537;-64
2022/04/13 13:43:30;;;;;;;5.90;2.15;;;;;;;29.99;19.69;99968.06;10225595;28;20101;-62
2022/04/13 13:48:32;;;;;;;8.00;5.30;;;;;;;30.10;20.92;99977.22;10224287;28;20047;-62
2022/04/13 13:53:34;;;;;;;6.78;4.38;;;;;;;30.03;20.93;99971.94;10219821;28;20051;-62
2022/04/13 13:58:35;;;;;;;4.82;2.97;;;;;;;29.99;20.64;99954.34;10218479;28;20055;-61
2022/04/13 14:03:36;;;;;;;7.28;3.03;;;;;;;29.99;20.71;99969.97;10219664;28;20105;-62
2022/04/13 14:08:38;;;;;;;29.80;23.48;;;;;;;29.75;20.90;99965.56;10216718;28;20142;-63
2022/04/13 14:13:40;;;;;;;14.82;10.10;;;;;;;29.70;21.18;99967.47;10220401;28;20055;-62
2022/04/13 14:18:41;;;;;;;9.50;5.80;;;;;;;29.37;21.79;99964.59;10217805;28;20110;-64
2022/04/13 14:23:42;;;;;;;6.53;2.67;;;;;;;28.92;21.77;99949.19;10217289;28;20510;-61
2022/04/13 14:28:46;;;;;;;5.93;4.00;;;;;;;28.76;22.10;99961.00;10225184;28;20791;-61
2022/04/13 14:33:47;;;;;;;8.43;4.47;;;;;;;28.60;22.23;99970.88;10215615;28;20566;-60
2022/04/13 14:38:48;;;;;;;4.43;1.97;;;;;;;27.98;23.07;99969.81;10222608;28;20050;-60
2022/04/13 14:43:50;;;;;;;12.33;7.43;;;;;;;27.72;23.55;99974.78;10222004;28;20062;-64
2022/04/13 14:48:52;;;;;;;14.07;9.90;;;;;;;27.42;23.45;99973.09;10216321;28;20047;-61
2022/04/13 14:53:55;;;;;;;8.48;3.80;;;;;;;27.38;23.33;99960.97;10223993;28;20055;-62
2022/04/13 14:58:57;;;;;;;4.50;1.92;;;;;;;27.23;23.20;99971.56;10221484;28;20747;-62
2022/04/13 15:03:59;;;;;;;5.40;2.45;;;;;;;27.04;23.85;99966.25;10223667;28;20047;-61
2022/04/13 15:09:00;;;;;;;3.78;2.00;;;;;;;26.84;23.84;99954.88;10221018;28;20049;-62
2022/04/13 15:14:06;;;;;;;9.98;3.67;;;;;;;26.84;24.07;99963.88;10219956;28;20042;-62
2022/04/13 15:19:09;;;;;;;6.18;2.33;;;;;;;26.78;24.36;99967.56;10215790;28;20802;-62
2022/04/13 15:24:11;;;;;;;5.28;2.63;;;;;;;26.52;24.51;99957.94;10216993;28;20043;-61
2022/04/13 15:29:13;;;;;;;5.22;2.78;;;;;;;26.48;24.75;99956.72;10220526;28;20057;-62
2022/04/13 15:34:14;;;;;;;5.00;2.85;;;;;;;26.55;25.20;99976.56;10215557;28;20502;-62
2022/04/13 15:39:16;;;;;;;5.30;2.83;;;;;;;26.36;25.88;99959.44;10214089;28;20058;-62
2022/04/13 15:44:17;;;;;;;6.78;3.42;;;;;;;25.87;26.50;99978.63;10214234;28;20042;-62
2022/04/13 15:49:18;;;;;;;6.47;3.10;;;;;;;25.77;26.75;99974.53;10211678;28;20592;-62
2022/04/13 15:54:20;;;;;;;4.90;3.22;;;;;;;25.68;27.43;99959.56;10214247;28;20055;-63
2022/04/13 15:59:21;;;;;;;6.95;4.20;;;;;;;25.62;27.42;99955.03;10213161;28;20061;-62
2022/04/13 16:04:23;;;;;;;8.65;5.88;;;;;;;25.51;27.29;99966.72;10211799;28;20714;-63
2022/04/13 16:09:24;;;;;;;19.42;14.75;;;;;;;25.37;27.45;99979.66;10211815;28;20603;-62
2022/04/13 16:14:26;;;;;;;14.60;9.63;;;;;;;25.31;27.51;99973.25;10211135;28;20063;-61
2022/04/13 16:19:28;;;;;;;9.67;6.80;;;;;;;25.22;27.58;99971.84;10209776;28;20047;-63
2022/04/13 16:24:29;;;;;;;7.18;4.80;;;;;;;25.10;27.74;99981.81;10209343;28;20055;-62
2022/04/13 16:29:30;;;;;;;8.38;5.13;;;;;;;24.95;28.03;99982.19;10210969;28;20197;-64
2022/04/13 16:34:32;;;;;;;4.65;2.00;;;;;;;24.83;28.20;99979.38;10207115;28;20129;-62
2022/04/13 16:39:33;;;;;;;4.22;1.88;;;;;;;24.68;28.48;99982.44;10211547;28;20058;-62
2022/04/13 16:44:35;;;;;;;15.07;11.85;;;;;;;24.58;28.80;99977.50;10207933;28;20133;-61
2022/04/13 16:49:36;;;;;;;7.15;3.42;;;;;;;24.39;29.18;99983.91;10202030;28;20161;-62
2022/04/13 16:54:38;;;;;;;10.27;7.10;;;;;;;24.27;29.25;99990.06;10202166;28;20055;-59
2022/04/13 16:59:39;;;;;;;9.38;5.78;;;;;;;24.13;29.53;99991.22;10214712;28;20051;-61
2022/04/13 17:04:41;;;;;;;4.82;2.90;;;;;;;23.96;29.96;99991.72;10207737;28;21524;-61
2022/04/13 17:09:42;;;;;;;5.57;2.60;;;;;;;23.85;30.20;99989.69;10215567;28;20116;-61
2022/04/13 17:14:43;;;;;;;6.55;4.82;;;;;;;23.61;30.54;99974.94;10209902;28;20113;-63
2022/04/13 17:19:45;;;;;;;18.02;14.07;;;;;;;23.57;31.00;99990.84;10213706;28;20066;-63
2022/04/13 17:24:46;;;;;;;8.02;3.30;;;;;;;23.32;31.01;99973.63;10206354;28;20061;-62
2022/04/13 17:29:48;;;;;;;3.47;2.22;;;;;;;22.93;31.80;99982.44;10211038;28;20059;-63
2022/04/13 17:34:49;;;;;;;7.75;4.10;;;;;;;22.96;32.07;99986.59;10217837;28;20431;-61
2022/04/13 17:39:51;;;;;;;4.40;2.58;;;;;;;22.91;32.48;100002.69;10219983;28;21058;-62
2022/04/13 17:44:53;;;;;;;5.20;2.80;;;;;;;22.74;33.04;99988.72;10219327;28;20469;-62
2022/04/13 17:49:54;;;;;;;7.55;4.93;;;;;;;22.56;33.16;99987.50;10220102;28;20059;-62
2022/04/13 17:54:56;;;;;;;5.97;3.30;;;;;;;22.40;33.21;99988.72;10219319;28;20539;-62
2022/04/13 17:59:57;;;;;;;5.10;2.58;;;;;;;22.32;33.65;100002.47;10220173;28;22970;-61
2022/04/13 18:04:59;;;;;;;4.95;2.40;;;;;;;22.00;34.11;99979.69;10219069;28;20043;-62
2022/04/13 18:10:00;;;;;;;3.50;2.40;;;;;;;22.11;35.10;100011.56;10215434;28;20061;-63
2022/04/13 18:15:02;;;;;;;8.38;4.10;;;;;;;22.03;34.83;100014.50;10215388;28;20121;-62
2022/04/13 18:20:04;;;;;;;5.82;3.10;;;;;;;21.95;35.13;100025.50;10216293;28;20058;-61
2022/04/13 18:25:06;;;;;;;4.72;2.28;;;;;;;21.86;35.24;100035.72;10217169;28;20065;-63
2022/04/13 18:30:10;;;;;;;4.40;2.65;;;;;;;21.67;35.52;100037.28;10217820;28;20142;-62
2022/04/13 18:35:12;;;;;;;5.95;3.67;;;;;;;21.60;36.27;100039.13;10218160;28;20077;-64
2022/04/13 18:40:14;;;;;;;6.50;3.88;;;;;;;21.48;36.18;100028.84;10219912;28;20163;-62
2022/04/13 18:45:16;;;;;;;8.10;3.97;;;;;;;21.48;36.31;100042.38;10222180;28;20600;-61
2022/04/13 18:50:17;;;;;;;5.70;3.83;;;;;;;21.41;36.28;100048.78;10216198;28;20043;-61
2022/04/13 18:55:19;;;;;;;5.85;2.65;;;;;;;21.32;38.37;100045.41;10216745;28;20055;-64
2022/04/13 19:00:20;;;;;;;5.50;2.65;;;;;;;21.26;38.02;100040.78;10224312;28;20055;-63
2022/04/13 19:05:21;;;;;;;6.13;2.97;;;;;;;21.36;37.81;100066.47;10217304;28;20063;-63
2022/04/13 19:10:23;;;;;;;5.63;3.05;;;;;;;21.36;38.27;100071.88;10219617;28;20625;-65
2022/04/13 19:15:25;;;;;;;6.43;2.60;;;;;;;21.28;38.12;100069.31;10219621;28;20055;-63
2022/04/13 19:20:27;;;;;;;6.57;3.13;;;;;;;21.23;37.59;100079.06;10213767;28;20568;-62
2022/04/13 19:25:28;;;;;;;4.93;2.88;;;;;;;21.01;38.86;100079.13;10211658;28;20242;-64
2022/04/13 19:30:30;;;;;;;5.85;3.72;;;;;;;21.06;38.57;100062.31;10217984;28;20141;-64
2022/04/13 19:35:31;;;;;;;6.25;3.33;;;;;;;21.13;38.86;100085.66;10213753;28;20043;-62
2022/04/13 19:40:33;;;;;;;7.55;3.17;;;;;;;21.10;39.23;100086.06;10216828;28;20802;-63
2022/04/13 19:45:34;;;;;;;4.32;3.53;;;;;;;20.92;39.35;100074.91;10219150;28;20130;-65
2022/04/13 19:50:35;;;;;;;3.33;2.65;;;;;;;21.06;39.41;100098.31;10216191;28;20051;-67
2022/04/13 19:55:37;;;;;;;4.28;3.60;;;;;;;21.02;39.71;100095.16;10219005;28;20587;-63
2022/04/13 20:00:39;;;;;;;5.93;2.40;;;;;;;20.99;39.78;100109.09;10218095;28;20051;-62
2022/04/13 20:05:41;;;;;;;5.07;3.53;;;;;;;20.92;39.65;100097.38;10214864;28;21813;-63
2022/04/13 20:10:42;;;;;;;5.45;2.33;;;;;;;20.82;40.38;100100.41;10215521;28;20058;-63
2022/04/13 20:15:43;;;;;;;5.32;3.25;;;;;;;20.70;40.84;100103.81;10210536;28;20217;-66
2022/04/13 20:20:45;;;;;;;5.43;3.15;;;;;;;20.60;41.76;100123.06;10218992;28;20503;-63
2022/04/13 20:25:46;;;;;;;6.53;2.40;;;;;;;20.41;41.89;100133.44;10229907;28;20065;-65
2022/04/13 20:30:50;;;;;;;6.68;2.35;;;;;;;20.33;42.11;100121.91;10242074;28;20620;-62
2022/04/13 20:35:52;;;;;;;4.50;2.08;;;;;;;20.29;42.57;100118.75;10239011;28;20062;-65
2022/04/13 20:40:53;;;;;;;6.07;2.60;;;;;;;20.39;43.07;100135.50;10228795;28;20053;-64
2022/04/13 20:45:54;;;;;;;6.00;2.13;;;;;;;19.98;43.68;100117.13;10239295;28;20051;-64
2022/04/13 20:50:56;;;;;;;6.43;3.22;;;;;;;19.96;44.01;100132.69;10234308;28;20141;-66
2022/04/13 20:55:58;;;;;;;5.13;2.72;;;;;;;19.87;44.78;100139.22;10226754;28;20076;-63
2022/04/13 21:00:59;;;;;;;8.30;2.95;;;;;;;19.96;45.80;100143.50;10231717;28;20061;-64
2022/04/13 21:06:01;;;;;;;4.07;2.67;;;;;;;19.91;45.61;100132.44;10230084;28;20059;-63
2022/04/13 21:11:04;;;;;;;5.88;2.72;;;;;;;19.97;45.70;100137.09;10239769;28;20050;-63
2022/04/13 21:16:06;;;;;;;4.60;2.63;;;;;;;19.91;45.51;100146.78;10237452;28;20125;-63
2022/04/13 21:21:08;;;;;;;8.10;2.77;;;;;;;19.92;45.78;100145.75;10235521;28;20054;-63
2022/04/13 21:26:10;;;;;;;6.15;2.83;;;;;;;19.83;45.90;100151.44;10234875;28;20134;-64
2022/04/13 21:31:11;;;;;;;5.95;2.63;;;;;;;19.65;46.00;100131.03;10238089;28;20175;-63
2022/04/13 21:36:13;;;;;;;5.78;2.72;;;;;;;19.65;46.45;100151.75;10238939;28;20109;-64
2022/04/13 21:41:14;;;;;;;7.63;3.22;;;;;;;19.54;46.80;100139.56;10238488;28;20155;-63
2022/04/13 21:46:16;;;;;;;7.97;3.30;;;;;;;19.43;46.61;100149.78;10235587;28;20142;-63
2022/04/13 21:51:18;;;;;;;4.55;2.97;;;;;;;19.18;48.28;100151.06;10235191;28;20043;-63
2022/04/13 21:56:20;;;;;;;8.25;3.45;;;;;;;18.93;48.84;100153.97;10250397;28;20050;-64
2022/04/13 22:01:21;;;;;;;8.07;4.45;;;;;;;18.62;49.67;100129.72;10234067;28;20394;-63
2022/04/13 22:06:30;;;;;;;10.77;5.65;;;;;;;18.70;50.38;100159.31;10235102;28;20051;-64
2022/04/13 22:11:31;;;;;;;14.48;4.72;;;;;;;18.65;50.48;100150.94;10248127;28;20134;-63
2022/04/13 22:16:32;;;;;;;8.25;3.88;;;;;;;18.54;51.19;100161.09;10233765;28;20659;-63
2022/04/13 22:21:34;;;;;;;9.38;4.30;;;;;;;18.50;51.45;100158.94;10238239;28;20051;-64
2022/04/13 22:26:35;;;;;;;11.07;5.28;;;;;;;18.37;52.01;100160.38;10234913;28;20154;-64
2022/04/13 22:31:37;;;;;;;11.05;5.10;;;;;;;18.21;52.79;100160.44;10243066;28;20134;-64
2022/04/13 22:36:38;;;;;;;9.75;5.88;;;;;;;18.02;53.23;100135.59;10239749;28;20084;-65
2022/04/13 22:41:40;;;;;;;7.95;5.88;;;;;;;18.00;53.53;100140.31;10244481;28;20047;-63
2022/04/13 22:46:41;;;;;;;8.00;4.63;;;;;;;18.08;53.68;100144.00;10242057;28;20062;-64
2022/04/13 22:51:43;;;;;;;11.65;5.40;;;;;;;18.07;53.81;100128.84;10232042;28;20520;-63
2022/04/13 22:56:46;;;;;;;14.75;5.72;;;;;;;18.18;53.55;100145.47;10240449;28;20054;-64
2022/04/13 23:01:47;;;;;;;14.48;7.07;;;;;;;18.15;54.27;100151.19;10244329;28;20075;-63
2022/04/13 23:06:49;;;;;;;12.23;6.65;;;;;;;18.05;54.73;100155.13;10247816;28;20086;-63
2022/04/13 23:11:50;;;;;;;10.52;6.07;;;;;;;18.07;55.53;100147.69;10256085;28;20054;-63
2022/04/13 23:16:52;;;;;;;9.48;6.32;;;;;;;18.07;55.74;100155.78;10274773;28;20094;-60
2022/04/13 23:21:53;;;;;;;9.02;6.57;;;;;;;18.05;55.70;100157.81;10262302;28;20047;-60